sensor_id;sensor_type;location;lat;lon;timestamp;P1;durP1;ratioP1;P2;durP2;ratioP2
52934;SDS011;38802;50.198;19.796;2023-08-06T07:35:05;5.10;;;3.60;;
52934;SDS011;38802;50.198;19.796;2023-08-06T07:37:35;4.60;;;4.00;;
52934;SDS011;38802;50.198;19.796;2023-08-06T07:40:04;11.70;;;6.10;;
52934;SDS011;38802;50.198;19.796;2023-08-06T07:42:32;7.10;;;4.10;;
52934;SDS011;38802;50.198;19.796;2023-08-06T07:45:01;4.70;;;4.30;;
52934;SDS011;38802;50.198;19.796;2023-08-06T07:47:29;4.90;;;4.30;;
52934;SDS011;38802;50.198;19.796;2023-08-06T07:49:58;4.90;;;3.90;;
52934;SDS011;38802;50.198;19.796;2023-08-06T07:52:26;5.80;;;2.90;;
52934;SDS011;38802;50.198;19.796;2023-08-06T07:54:54;4.60;;;3.50;;
52934;SDS011;38802;50.198;19.796;2023-08-06T07:57:22;3.00;;;2.80;;
52934;SDS011;38802;50.198;19.796;2023-08-06T07:59:50;2.40;;;1.30;;
52934;SDS011;38802;50.198;19.796;2023-08-06T08:02:19;1.70;;;0.60;;
52934;SDS011;38802;50.198;19.796;2023-08-06T08:04:47;1.50;;;0.40;;
52934;SDS011;38802;50.198;19.796;2023-08-06T08:07:16;0.90;;;0.50;;
52934;SDS011;38802;50.198;19.796;2023-08-06T08:09:44;0.80;;;0.40;;
52934;SDS011;38802;50.198;19.796;2023-08-06T08:12:12;3.60;;;0.40;;
52934;SDS011;38802;50.198;19.796;2023-08-06T08:14:40;0.30;;;0.30;;
52934;SDS011;38802;50.198;19.796;2023-08-06T08:17:09;0.50;;;0.30;;
52934;SDS011;38802;50.198;19.796;2023-08-06T08:19:37;1.70;;;0.40;;
52934;SDS011;38802;50.198;19.796;2023-08-06T08:22:07;0.20;;;0.20;;
52934;SDS011;38802;50.198;19.796;2023-08-06T08:24:36;0.40;;;0.20;;
52934;SDS011;38802;50.198;19.796;2023-08-06T08:27:04;0.30;;;0.30;;
52934;SDS011;38802;50.198;19.796;2023-08-06T08:29:33;0.40;;;0.20;;
52934;SDS011;38802;50.198;19.796;2023-08-06T08:32:01;1.00;;;0.60;;
52934;SDS011;38802;50.198;19.796;2023-08-06T08:34:29;0.90;;;0.30;;
52934;SDS011;38802;50.198;19.796;2023-08-06T08:36:57;0.20;;;0.20;;
52934;SDS011;38802;50.198;19.796;2023-08-06T08:39:26;1.00;;;0.30;;
52934;SDS011;38802;50.198;19.796;2023-08-06T08:41:54;0.20;;;0.20;;
52934;SDS011;38802;50.198;19.796;2023-08-06T08:44:23;2.90;;;0.20;;
52934;SDS011;38802;50.198;19.796;2023-08-06T08:46:55;0.40;;;0.30;;
52934;SDS011;38802;50.198;19.796;2023-08-06T08:49:26;0.50;;;0.30;;
52934;SDS011;38802;50.198;19.796;2023-08-06T08:51:56;0.70;;;0.40;;
52934;SDS011;38802;50.198;19.796;2023-08-06T08:54:27;1.50;;;0.20;;
52934;SDS011;38802;50.198;19.796;2023-08-06T08:56:56;0.40;;;0.30;;
52934;SDS011;38802;50.198;19.796;2023-08-06T08:59:25;0.20;;;0.20;;
52934;SDS011;38802;50.198;19.796;2023-08-06T09:01:54;0.80;;;0.20;;
52934;SDS011;38802;50.198;19.796;2023-08-06T09:04:23;1.50;;;0.30;;
52934;SDS011;38802;50.198;19.796;2023-08-06T09:06:53;0.40;;;0.30;;
52934;SDS011;38802;50.198;19.796;2023-08-06T09:11:53;0.30;;;0.30;;
52934;SDS011;38802;50.198;19.796;2023-08-06T09:14:27;0.20;;;0.20;;
52934;SDS011;38802;50.198;19.796;2023-08-06T09:16:56;0.60;;;0.30;;
52934;SDS011;38802;50.198;19.796;2023-08-06T09:19:25;0.20;;;0.20;;
52934;SDS011;38802;50.198;19.796;2023-08-06T09:21:55;0.70;;;0.20;;
52934;SDS011;38802;50.198;19.796;2023-08-06T09:24:25;0.20;;;0.20;;
52934;SDS011;38802;50.198;19.796;2023-08-06T09:26:54;1.40;;;0.20;;
52934;SDS011;38802;50.198;19.796;2023-08-06T09:29:22;0.20;;;0.20;;
52934;SDS011;38802;50.198;19.796;2023-08-06T09:31:50;0.30;;;0.30;;
52934;SDS011;38802;50.198;19.796;2023-08-06T09:34:22;1.30;;;0.20;;
52934;SDS011;38802;50.198;19.796;2023-08-06T09:36:52;0.10;;;0.10;;
52934;SDS011;38802;50.198;19.796;2023-08-06T09:39:27;0.20;;;0.20;;
52934;SDS011;38802;50.198;19.796;2023-08-06T09:41:57;0.20;;;0.20;;
52934;SDS011;38802;50.198;19.796;2023-08-06T09:44:27;2.60;;;0.20;;
52934;SDS011;38802;50.198;19.796;2023-08-06T09:46:59;2.10;;;0.30;;
52934;SDS011;38802;50.198;19.796;2023-08-06T09:52:05;0.20;;;0.20;;
52934;SDS011;38802;50.198;19.796;2023-08-06T09:54:38;0.30;;;0.20;;
52934;SDS011;38802;50.198;19.796;2023-08-06T09:57:09;0.20;;;0.20;;
52934;SDS011;38802;50.198;19.796;2023-08-06T09:59:46;0.30;;;0.30;;
52934;SDS011;38802;50.198;19.796;2023-08-06T10:02:15;0.60;;;0.20;;
52934;SDS011;38802;50.198;19.796;2023-08-06T10:04:53;0.40;;;0.30;;
52934;SDS011;38802;50.198;19.796;2023-08-06T10:07:25;0.40;;;0.20;;
52934;SDS011;38802;50.198;19.796;2023-08-06T10:09:53;0.20;;;0.20;;
52934;SDS011;38802;50.198;19.796;2023-08-06T10:12:23;0.30;;;0.30;;
52934;SDS011;38802;50.198;19.796;2023-08-06T10:15:01;2.60;;;0.30;;
52934;SDS011;38802;50.198;19.796;2023-08-06T10:17:34;0.70;;;0.30;;
52934;SDS011;38802;50.198;19.796;2023-08-06T10:20:19;0.60;;;0.20;;
52934;SDS011;38802;50.198;19.796;2023-08-06T10:23:10;0.20;;;0.20;;
52934;SDS011;38802;50.198;19.796;2023-08-06T10:25:42;0.20;;;0.20;;
52934;SDS011;38802;50.198;19.796;2023-08-06T10:28:10;3.50;;;0.40;;
52934;SDS011;38802;50.198;19.796;2023-08-06T10:30:48;0.50;;;0.40;;
52934;SDS011;38802;50.198;19.796;2023-08-06T10:33:18;1.60;;;0.30;;
52934;SDS011;38802;50.198;19.796;2023-08-06T10:36:00;0.40;;;0.30;;
52934;SDS011;38802;50.198;19.796;2023-08-06T10:38:45;2.70;;;0.30;;
52934;SDS011;38802;50.198;19.796;2023-08-06T10:41:28;2.40;;;0.40;;
52934;SDS011;38802;50.198;19.796;2023-08-06T10:44:07;0.90;;;0.40;;
52934;SDS011;38802;50.198;19.796;2023-08-06T10:46:37;0.50;;;0.20;;
52934;SDS011;38802;50.198;19.796;2023-08-06T10:49:07;0.50;;;0.30;;
52934;SDS011;38802;50.198;19.796;2023-08-06T10:51:37;0.30;;;0.20;;
52934;SDS011;38802;50.198;19.796;2023-08-06T10:54:06;0.30;;;0.20;;
52934;SDS011;38802;50.198;19.796;2023-08-06T10:56:39;0.30;;;0.30;;
52934;SDS011;38802;50.198;19.796;2023-08-06T10:59:11;0.30;;;0.30;;
52934;SDS011;38802;50.198;19.796;2023-08-06T11:01:44;0.30;;;0.30;;
52934;SDS011;38802;50.198;19.796;2023-08-06T11:04:13;0.50;;;0.30;;
52934;SDS011;38802;50.198;19.796;2023-08-06T11:06:45;1.30;;;0.40;;
52934;SDS011;38802;50.198;19.796;2023-08-06T11:09:22;0.40;;;0.40;;
52934;SDS011;38802;50.198;19.796;2023-08-06T11:11:51;1.20;;;0.40;;
52934;SDS011;38802;50.198;19.796;2023-08-06T11:14:21;4.00;;;0.50;;
52934;SDS011;38802;50.198;19.796;2023-08-06T11:16:51;0.40;;;0.40;;
52934;SDS011;38802;50.198;19.796;2023-08-06T11:19:20;0.60;;;0.30;;
52934;SDS011;38802;50.198;19.796;2023-08-06T11:21:52;0.30;;;0.30;;
52934;SDS011;38802;50.198;19.796;2023-08-06T11:24:21;0.60;;;0.40;;
52934;SDS011;38802;50.198;19.796;2023-08-06T11:26:52;0.30;;;0.30;;
52934;SDS011;38802;50.198;19.796;2023-08-06T11:29:21;0.30;;;0.30;;
52934;SDS011;38802;50.198;19.796;2023-08-06T11:31:51;0.40;;;0.40;;
52934;SDS011;38802;50.198;19.796;2023-08-06T11:34:20;0.40;;;0.40;;
52934;SDS011;38802;50.198;19.796;2023-08-06T11:36:49;0.40;;;0.40;;
52934;SDS011;38802;50.198;19.796;2023-08-06T11:39:17;0.50;;;0.30;;
52934;SDS011;38802;50.198;19.796;2023-08-06T11:41:46;0.30;;;0.30;;
52934;SDS011;38802;50.198;19.796;2023-08-06T11:44:18;0.20;;;0.20;;
52934;SDS011;38802;50.198;19.796;2023-08-06T11:46:54;0.30;;;0.30;;
52934;SDS011;38802;50.198;19.796;2023-08-06T11:49:43;0.30;;;0.30;;
52934;SDS011;38802;50.198;19.796;2023-08-06T11:52:19;0.50;;;0.30;;
52934;SDS011;38802;50.198;19.796;2023-08-06T11:57:36;0.90;;;0.50;;
52934;SDS011;38802;50.198;19.796;2023-08-06T12:00:06;1.30;;;0.30;;
52934;SDS011;38802;50.198;19.796;2023-08-06T12:02:40;0.30;;;0.30;;
52934;SDS011;38802;50.198;19.796;2023-08-06T12:05:10;0.40;;;0.40;;
52934;SDS011;38802;50.198;19.796;2023-08-06T12:10:37;0.40;;;0.40;;
52934;SDS011;38802;50.198;19.796;2023-08-06T12:13:06;1.50;;;0.40;;
52934;SDS011;38802;50.198;19.796;2023-08-06T12:15:34;0.60;;;0.50;;
52934;SDS011;38802;50.198;19.796;2023-08-06T12:18:02;0.20;;;0.20;;
52934;SDS011;38802;50.198;19.796;2023-08-06T12:20:31;0.80;;;0.30;;
52934;SDS011;38802;50.198;19.796;2023-08-06T12:22:59;0.50;;;0.30;;
52934;SDS011;38802;50.198;19.796;2023-08-06T12:25:28;0.30;;;0.30;;
52934;SDS011;38802;50.198;19.796;2023-08-06T12:27:56;1.40;;;0.30;;
52934;SDS011;38802;50.198;19.796;2023-08-06T12:30:25;0.70;;;0.40;;
52934;SDS011;38802;50.198;19.796;2023-08-06T12:32:56;0.30;;;0.30;;
52934;SDS011;38802;50.198;19.796;2023-08-06T12:35:26;0.20;;;0.20;;
52934;SDS011;38802;50.198;19.796;2023-08-06T12:37:55;0.30;;;0.30;;
52934;SDS011;38802;50.198;19.796;2023-08-06T12:40:28;0.40;;;0.30;;
52934;SDS011;38802;50.198;19.796;2023-08-06T12:43:06;0.20;;;0.20;;
52934;SDS011;38802;50.198;19.796;2023-08-06T12:45:35;0.40;;;0.30;;
52934;SDS011;38802;50.198;19.796;2023-08-06T12:48:03;0.40;;;0.40;;
52934;SDS011;38802;50.198;19.796;2023-08-06T12:50:32;0.30;;;0.30;;
52934;SDS011;38802;50.198;19.796;2023-08-06T12:53:03;0.60;;;0.40;;
52934;SDS011;38802;50.198;19.796;2023-08-06T12:55:33;0.30;;;0.30;;
52934;SDS011;38802;50.198;19.796;2023-08-06T12:58:01;0.80;;;0.30;;
52934;SDS011;38802;50.198;19.796;2023-08-06T13:00:29;0.40;;;0.40;;
52934;SDS011;38802;50.198;19.796;2023-08-06T13:02:58;0.30;;;0.30;;
52934;SDS011;38802;50.198;19.796;2023-08-06T13:05:26;0.40;;;0.30;;
52934;SDS011;38802;50.198;19.796;2023-08-06T13:07:54;0.20;;;0.20;;
52934;SDS011;38802;50.198;19.796;2023-08-06T13:10:23;0.40;;;0.30;;
52934;SDS011;38802;50.198;19.796;2023-08-06T13:12:52;0.30;;;0.30;;
52934;SDS011;38802;50.198;19.796;2023-08-06T13:15:20;0.40;;;0.30;;
52934;SDS011;38802;50.198;19.796;2023-08-06T13:17:49;0.30;;;0.30;;
52934;SDS011;38802;50.198;19.796;2023-08-06T13:20:41;0.30;;;0.30;;
52934;SDS011;38802;50.198;19.796;2023-08-06T13:23:12;0.50;;;0.40;;
52934;SDS011;38802;50.198;19.796;2023-08-06T13:25:47;0.40;;;0.30;;
52934;SDS011;38802;50.198;19.796;2023-08-06T13:28:16;0.30;;;0.30;;
52934;SDS011;38802;50.198;19.796;2023-08-06T13:30:45;0.80;;;0.30;;
52934;SDS011;38802;50.198;19.796;2023-08-06T13:33:14;0.20;;;0.20;;
52934;SDS011;38802;50.198;19.796;2023-08-06T13:35:54;4.30;;;0.30;;
52934;SDS011;38802;50.198;19.796;2023-08-06T13:38:24;0.40;;;0.40;;
52934;SDS011;38802;50.198;19.796;2023-08-06T13:40:56;0.20;;;0.20;;
52934;SDS011;38802;50.198;19.796;2023-08-06T13:43:33;1.50;;;0.30;;
52934;SDS011;38802;50.198;19.796;2023-08-06T13:46:04;0.80;;;0.30;;
52934;SDS011;38802;50.198;19.796;2023-08-06T13:48:44;0.70;;;0.30;;
52934;SDS011;38802;50.198;19.796;2023-08-06T13:51:14;0.40;;;0.30;;
52934;SDS011;38802;50.198;19.796;2023-08-06T13:53:43;0.70;;;0.70;;
52934;SDS011;38802;50.198;19.796;2023-08-06T13:56:12;0.30;;;0.30;;
52934;SDS011;38802;50.198;19.796;2023-08-06T13:58:46;0.90;;;0.40;;
52934;SDS011;38802;50.198;19.796;2023-08-06T14:01:17;0.30;;;0.30;;
52934;SDS011;38802;50.198;19.796;2023-08-06T14:03:58;0.40;;;0.40;;
52934;SDS011;38802;50.198;19.796;2023-08-06T14:06:31;0.40;;;0.40;;
52934;SDS011;38802;50.198;19.796;2023-08-06T14:09:01;2.00;;;0.40;;
52934;SDS011;38802;50.198;19.796;2023-08-06T14:11:33;0.80;;;0.50;;
52934;SDS011;38802;50.198;19.796;2023-08-06T14:14:06;0.40;;;0.40;;
52934;SDS011;38802;50.198;19.796;2023-08-06T14:16:35;1.90;;;0.40;;
52934;SDS011;38802;50.198;19.796;2023-08-06T14:19:04;0.40;;;0.40;;
52934;SDS011;38802;50.198;19.796;2023-08-06T14:21:42;0.30;;;0.30;;
52934;SDS011;38802;50.198;19.796;2023-08-06T14:24:16;0.30;;;0.30;;
52934;SDS011;38802;50.198;19.796;2023-08-06T14:26:44;0.40;;;0.40;;
52934;SDS011;38802;50.198;19.796;2023-08-06T14:29:12;0.40;;;0.40;;
52934;SDS011;38802;50.198;19.796;2023-08-06T14:31:41;3.60;;;0.50;;
52934;SDS011;38802;50.198;19.796;2023-08-06T14:34:09;0.50;;;0.40;;
52934;SDS011;38802;50.198;19.796;2023-08-06T14:36:38;0.70;;;0.60;;
52934;SDS011;38802;50.198;19.796;2023-08-06T14:39:06;0.50;;;0.50;;
52934;SDS011;38802;50.198;19.796;2023-08-06T14:41:34;3.00;;;0.50;;
52934;SDS011;38802;50.198;19.796;2023-08-06T14:44:02;1.40;;;0.40;;
52934;SDS011;38802;50.198;19.796;2023-08-06T14:46:30;0.70;;;0.50;;
52934;SDS011;38802;50.198;19.796;2023-08-06T14:48:58;0.70;;;0.40;;
52934;SDS011;38802;50.198;19.796;2023-08-06T14:51:26;0.70;;;0.60;;
52934;SDS011;38802;50.198;19.796;2023-08-06T14:53:55;0.40;;;0.40;;
52934;SDS011;38802;50.198;19.796;2023-08-06T14:56:24;0.60;;;0.50;;
52934;SDS011;38802;50.198;19.796;2023-08-06T14:58:52;0.50;;;0.40;;
52934;SDS011;38802;50.198;19.796;2023-08-06T15:01:20;1.00;;;0.50;;
52934;SDS011;38802;50.198;19.796;2023-08-06T15:03:48;1.90;;;0.50;;
52934;SDS011;38802;50.198;19.796;2023-08-06T15:06:16;0.40;;;0.40;;
52934;SDS011;38802;50.198;19.796;2023-08-06T15:08:44;0.50;;;0.50;;
52934;SDS011;38802;50.198;19.796;2023-08-06T15:11:14;0.40;;;0.40;;
52934;SDS011;38802;50.198;19.796;2023-08-06T15:13:42;0.60;;;0.30;;
52934;SDS011;38802;50.198;19.796;2023-08-06T15:16:11;0.50;;;0.50;;
52934;SDS011;38802;50.198;19.796;2023-08-06T15:18:39;2.00;;;0.40;;
52934;SDS011;38802;50.198;19.796;2023-08-06T15:21:07;0.40;;;0.40;;
52934;SDS011;38802;50.198;19.796;2023-08-06T15:23:35;0.50;;;0.50;;
52934;SDS011;38802;50.198;19.796;2023-08-06T15:26:05;1.50;;;0.60;;
52934;SDS011;38802;50.198;19.796;2023-08-06T15:28:34;1.60;;;0.50;;
52934;SDS011;38802;50.198;19.796;2023-08-06T15:31:04;1.20;;;0.40;;
52934;SDS011;38802;50.198;19.796;2023-08-06T15:33:35;1.20;;;0.40;;
52934;SDS011;38802;50.198;19.796;2023-08-06T15:36:04;1.50;;;0.60;;
52934;SDS011;38802;50.198;19.796;2023-08-06T15:38:33;0.50;;;0.50;;
52934;SDS011;38802;50.198;19.796;2023-08-06T15:41:01;2.40;;;0.40;;
52934;SDS011;38802;50.198;19.796;2023-08-06T15:43:31;2.40;;;0.40;;
52934;SDS011;38802;50.198;19.796;2023-08-06T15:46:01;0.80;;;0.40;;
52934;SDS011;38802;50.198;19.796;2023-08-06T15:48:30;0.80;;;0.40;;
52934;SDS011;38802;50.198;19.796;2023-08-06T15:50:59;0.80;;;0.50;;
52934;SDS011;38802;50.198;19.796;2023-08-06T15:53:28;0.50;;;0.50;;
52934;SDS011;38802;50.198;19.796;2023-08-06T15:55:56;3.10;;;0.50;;
52934;SDS011;38802;50.198;19.796;2023-08-06T15:58:25;0.50;;;0.50;;
52934;SDS011;38802;50.198;19.796;2023-08-06T16:00:53;0.50;;;0.50;;
52934;SDS011;38802;50.198;19.796;2023-08-06T16:03:22;0.80;;;0.40;;
52934;SDS011;38802;50.198;19.796;2023-08-06T16:05:52;1.90;;;0.50;;
52934;SDS011;38802;50.198;19.796;2023-08-06T16:08:20;1.60;;;0.40;;
52934;SDS011;38802;50.198;19.796;2023-08-06T16:10:49;1.60;;;0.50;;
52934;SDS011;38802;50.198;19.796;2023-08-06T16:13:30;0.40;;;0.40;;
52934;SDS011;38802;50.198;19.796;2023-08-06T16:16:03;3.40;;;0.40;;
52934;SDS011;38802;50.198;19.796;2023-08-06T16:18:40;0.50;;;0.50;;
52934;SDS011;38802;50.198;19.796;2023-08-06T16:21:09;0.40;;;0.40;;
52934;SDS011;38802;50.198;19.796;2023-08-06T16:23:40;0.40;;;0.40;;
52934;SDS011;38802;50.198;19.796;2023-08-06T16:26:11;0.40;;;0.40;;
52934;SDS011;38802;50.198;19.796;2023-08-06T16:28:39;3.00;;;0.40;;
52934;SDS011;38802;50.198;19.796;2023-08-06T16:31:08;0.70;;;0.50;;
52934;SDS011;38802;50.198;19.796;2023-08-06T16:33:38;1.90;;;0.50;;
52934;SDS011;38802;50.198;19.796;2023-08-06T16:36:07;1.00;;;0.50;;
52934;SDS011;38802;50.198;19.796;2023-08-06T16:38:35;2.30;;;0.40;;
52934;SDS011;38802;50.198;19.796;2023-08-06T16:41:03;7.90;;;0.80;;
52934;SDS011;38802;50.198;19.796;2023-08-06T16:43:34;1.90;;;0.50;;
52934;SDS011;38802;50.198;19.796;2023-08-06T16:46:03;0.60;;;0.60;;
52934;SDS011;38802;50.198;19.796;2023-08-06T16:48:33;6.20;;;0.70;;
52934;SDS011;38802;50.198;19.796;2023-08-06T16:51:23;0.50;;;0.50;;
52934;SDS011;38802;50.198;19.796;2023-08-06T16:53:52;1.00;;;0.60;;
52934;SDS011;38802;50.198;19.796;2023-08-06T16:56:24;0.60;;;0.60;;
52934;SDS011;38802;50.198;19.796;2023-08-06T16:58:55;2.90;;;0.70;;
52934;SDS011;38802;50.198;19.796;2023-08-06T17:01:25;0.60;;;0.50;;
52934;SDS011;38802;50.198;19.796;2023-08-06T17:03:53;0.70;;;0.60;;
52934;SDS011;38802;50.198;19.796;2023-08-06T17:06:24;0.60;;;0.60;;
52934;SDS011;38802;50.198;19.796;2023-08-06T17:08:52;1.40;;;0.70;;
52934;SDS011;38802;50.198;19.796;2023-08-06T17:11:20;0.80;;;0.70;;
52934;SDS011;38802;50.198;19.796;2023-08-06T17:13:48;1.90;;;0.50;;
52934;SDS011;38802;50.198;19.796;2023-08-06T17:16:17;1.30;;;0.60;;
52934;SDS011;38802;50.198;19.796;2023-08-06T17:18:45;0.70;;;0.70;;
52934;SDS011;38802;50.198;19.796;2023-08-06T17:21:14;0.50;;;0.50;;
52934;SDS011;38802;50.198;19.796;2023-08-06T17:23:43;3.90;;;0.70;;
52934;SDS011;38802;50.198;19.796;2023-08-06T17:26:11;1.00;;;0.70;;
52934;SDS011;38802;50.198;19.796;2023-08-06T17:28:44;0.90;;;0.70;;
52934;SDS011;38802;50.198;19.796;2023-08-06T17:31:13;1.30;;;0.60;;
52934;SDS011;38802;50.198;19.796;2023-08-06T17:33:43;3.20;;;0.60;;
52934;SDS011;38802;50.198;19.796;2023-08-06T17:36:13;0.80;;;0.80;;
52934;SDS011;38802;50.198;19.796;2023-08-06T17:38:42;1.00;;;0.60;;
52934;SDS011;38802;50.198;19.796;2023-08-06T17:41:12;0.50;;;0.50;;
52934;SDS011;38802;50.198;19.796;2023-08-06T17:43:41;1.00;;;0.50;;
52934;SDS011;38802;50.198;19.796;2023-08-06T17:46:10;0.90;;;0.60;;
52934;SDS011;38802;50.198;19.796;2023-08-06T17:48:40;0.90;;;0.90;;
52934;SDS011;38802;50.198;19.796;2023-08-06T17:51:09;0.50;;;0.50;;
52934;SDS011;38802;50.198;19.796;2023-08-06T17:53:39;2.80;;;0.50;;
52934;SDS011;38802;50.198;19.796;2023-08-06T17:56:07;1.00;;;0.50;;
52934;SDS011;38802;50.198;19.796;2023-08-06T17:58:35;0.60;;;0.50;;
52934;SDS011;38802;50.198;19.796;2023-08-06T18:01:04;0.90;;;0.70;;
52934;SDS011;38802;50.198;19.796;2023-08-06T18:03:43;0.80;;;0.70;;
52934;SDS011;38802;50.198;19.796;2023-08-06T18:06:13;4.50;;;0.70;;
52934;SDS011;38802;50.198;19.796;2023-08-06T18:08:41;1.10;;;0.80;;
52934;SDS011;38802;50.198;19.796;2023-08-06T18:11:10;0.70;;;0.70;;
52934;SDS011;38802;50.198;19.796;2023-08-06T18:13:46;3.30;;;0.70;;
52934;SDS011;38802;50.198;19.796;2023-08-06T18:16:15;0.60;;;0.60;;
52934;SDS011;38802;50.198;19.796;2023-08-06T18:18:48;3.60;;;0.70;;
52934;SDS011;38802;50.198;19.796;2023-08-06T18:21:20;3.60;;;0.70;;
52934;SDS011;38802;50.198;19.796;2023-08-06T18:23:49;1.00;;;0.90;;
52934;SDS011;38802;50.198;19.796;2023-08-06T18:26:21;0.90;;;0.60;;
52934;SDS011;38802;50.198;19.796;2023-08-06T18:28:49;0.70;;;0.60;;
52934;SDS011;38802;50.198;19.796;2023-08-06T18:31:17;2.90;;;0.70;;
52934;SDS011;38802;50.198;19.796;2023-08-06T18:33:45;0.50;;;0.50;;
52934;SDS011;38802;50.198;19.796;2023-08-06T18:36:14;3.30;;;0.60;;
52934;SDS011;38802;50.198;19.796;2023-08-06T18:38:43;2.10;;;0.60;;
52934;SDS011;38802;50.198;19.796;2023-08-06T18:41:13;0.90;;;0.70;;
52934;SDS011;38802;50.198;19.796;2023-08-06T18:43:42;2.50;;;1.10;;
52934;SDS011;38802;50.198;19.796;2023-08-06T18:46:12;2.60;;;1.00;;
52934;SDS011;38802;50.198;19.796;2023-08-06T18:48:41;1.50;;;0.80;;
52934;SDS011;38802;50.198;19.796;2023-08-06T18:51:11;0.90;;;0.70;;
52934;SDS011;38802;50.198;19.796;2023-08-06T18:53:40;1.10;;;0.70;;
52934;SDS011;38802;50.198;19.796;2023-08-06T18:56:10;3.00;;;0.70;;
52934;SDS011;38802;50.198;19.796;2023-08-06T18:58:39;1.00;;;0.80;;
52934;SDS011;38802;50.198;19.796;2023-08-06T19:01:09;0.90;;;0.90;;
52934;SDS011;38802;50.198;19.796;2023-08-06T19:03:39;0.60;;;0.60;;
52934;SDS011;38802;50.198;19.796;2023-08-06T19:06:08;0.70;;;0.70;;
52934;SDS011;38802;50.198;19.796;2023-08-06T19:08:40;1.20;;;0.60;;
52934;SDS011;38802;50.198;19.796;2023-08-06T19:11:10;1.10;;;0.80;;
52934;SDS011;38802;50.198;19.796;2023-08-06T19:13:39;1.50;;;0.90;;
52934;SDS011;38802;50.198;19.796;2023-08-06T19:16:08;1.30;;;0.90;;
52934;SDS011;38802;50.198;19.796;2023-08-06T19:18:40;2.40;;;0.70;;
52934;SDS011;38802;50.198;19.796;2023-08-06T19:21:13;1.00;;;0.70;;
52934;SDS011;38802;50.198;19.796;2023-08-06T19:23:42;0.90;;;0.70;;
52934;SDS011;38802;50.198;19.796;2023-08-06T19:26:12;1.40;;;0.80;;
52934;SDS011;38802;50.198;19.796;2023-08-06T19:28:40;5.30;;;1.00;;
52934;SDS011;38802;50.198;19.796;2023-08-06T19:31:10;3.30;;;0.90;;
52934;SDS011;38802;50.198;19.796;2023-08-06T19:33:42;0.90;;;0.90;;
52934;SDS011;38802;50.198;19.796;2023-08-06T19:36:13;2.00;;;1.20;;
52934;SDS011;38802;50.198;19.796;2023-08-06T19:38:43;2.00;;;1.20;;
52934;SDS011;38802;50.198;19.796;2023-08-06T19:41:12;1.30;;;1.20;;
52934;SDS011;38802;50.198;19.796;2023-08-06T19:43:48;1.70;;;1.40;;
52934;SDS011;38802;50.198;19.796;2023-08-06T19:46:17;1.80;;;1.20;;
52934;SDS011;38802;50.198;19.796;2023-08-06T19:48:46;1.50;;;1.40;;
52934;SDS011;38802;50.198;19.796;2023-08-06T19:51:18;1.80;;;1.70;;
52934;SDS011;38802;50.198;19.796;2023-08-06T19:53:48;1.60;;;1.20;;
52934;SDS011;38802;50.198;19.796;2023-08-06T19:56:17;2.10;;;1.60;;
52934;SDS011;38802;50.198;19.796;2023-08-06T19:59:16;1.40;;;0.90;;
52934;SDS011;38802;50.198;19.796;2023-08-06T20:01:54;1.20;;;1.00;;
52934;SDS011;38802;50.198;19.796;2023-08-06T20:04:23;4.10;;;1.20;;
52934;SDS011;38802;50.198;19.796;2023-08-06T20:06:52;3.10;;;1.10;;
52934;SDS011;38802;50.198;19.796;2023-08-06T20:09:23;2.00;;;0.90;;
52934;SDS011;38802;50.198;19.796;2023-08-06T20:11:53;2.30;;;1.20;;
52934;SDS011;38802;50.198;19.796;2023-08-06T20:14:29;1.30;;;1.20;;
52934;SDS011;38802;50.198;19.796;2023-08-06T20:16:57;2.50;;;1.20;;
52934;SDS011;38802;50.198;19.796;2023-08-06T20:19:26;2.00;;;1.10;;
52934;SDS011;38802;50.198;19.796;2023-08-06T20:21:57;1.40;;;1.20;;
52934;SDS011;38802;50.198;19.796;2023-08-06T20:24:26;1.90;;;1.50;;
52934;SDS011;38802;50.198;19.796;2023-08-06T20:26:56;2.00;;;1.10;;
52934;SDS011;38802;50.198;19.796;2023-08-06T20:29:26;1.70;;;1.30;;
52934;SDS011;38802;50.198;19.796;2023-08-06T20:31:55;2.70;;;1.20;;
52934;SDS011;38802;50.198;19.796;2023-08-06T20:34:26;1.40;;;1.20;;
52934;SDS011;38802;50.198;19.796;2023-08-06T20:36:56;2.30;;;1.20;;
52934;SDS011;38802;50.198;19.796;2023-08-06T20:39:26;2.60;;;1.10;;
52934;SDS011;38802;50.198;19.796;2023-08-06T20:41:55;2.10;;;1.40;;
52934;SDS011;38802;50.198;19.796;2023-08-06T20:44:25;1.90;;;1.30;;
52934;SDS011;38802;50.198;19.796;2023-08-06T20:46:56;3.10;;;1.10;;
52934;SDS011;38802;50.198;19.796;2023-08-06T20:49:25;1.40;;;1.10;;
52934;SDS011;38802;50.198;19.796;2023-08-06T20:52:02;1.70;;;1.40;;
52934;SDS011;38802;50.198;19.796;2023-08-06T20:54:32;1.50;;;1.40;;
52934;SDS011;38802;50.198;19.796;2023-08-06T20:57:01;1.70;;;1.60;;
52934;SDS011;38802;50.198;19.796;2023-08-06T20:59:29;3.50;;;1.30;;
52934;SDS011;38802;50.198;19.796;2023-08-06T21:01:57;1.40;;;1.10;;
52934;SDS011;38802;50.198;19.796;2023-08-06T21:04:25;2.90;;;1.20;;
52934;SDS011;38802;50.198;19.796;2023-08-06T21:06:53;1.40;;;1.30;;
52934;SDS011;38802;50.198;19.796;2023-08-06T21:09:21;1.50;;;1.40;;
52934;SDS011;38802;50.198;19.796;2023-08-06T21:11:50;1.30;;;1.30;;
52934;SDS011;38802;50.198;19.796;2023-08-06T21:14:18;1.20;;;1.10;;
52934;SDS011;38802;50.198;19.796;2023-08-06T21:16:46;1.40;;;1.30;;
52934;SDS011;38802;50.198;19.796;2023-08-06T21:19:14;3.20;;;1.60;;
52934;SDS011;38802;50.198;19.796;2023-08-06T21:21:42;1.40;;;1.10;;
52934;SDS011;38802;50.198;19.796;2023-08-06T21:24:10;1.30;;;1.20;;
52934;SDS011;38802;50.198;19.796;2023-08-06T21:26:38;2.50;;;1.30;;
52934;SDS011;38802;50.198;19.796;2023-08-06T21:29:06;1.90;;;1.50;;
52934;SDS011;38802;50.198;19.796;2023-08-06T21:31:34;1.30;;;1.20;;
52934;SDS011;38802;50.198;19.796;2023-08-06T21:34:07;4.20;;;1.60;;
52934;SDS011;38802;50.198;19.796;2023-08-06T21:36:35;1.40;;;1.30;;
52934;SDS011;38802;50.198;19.796;2023-08-06T21:39:04;1.50;;;1.20;;
52934;SDS011;38802;50.198;19.796;2023-08-06T21:41:33;2.10;;;1.40;;
52934;SDS011;38802;50.198;19.796;2023-08-06T21:44:04;5.00;;;1.40;;
52934;SDS011;38802;50.198;19.796;2023-08-06T21:46:32;2.10;;;1.10;;
52934;SDS011;38802;50.198;19.796;2023-08-06T21:49:04;2.90;;;1.20;;
52934;SDS011;38802;50.198;19.796;2023-08-06T21:51:32;3.00;;;1.10;;
52934;SDS011;38802;50.198;19.796;2023-08-06T21:54:08;3.10;;;1.20;;
52934;SDS011;38802;50.198;19.796;2023-08-06T21:56:42;1.50;;;1.00;;
52934;SDS011;38802;50.198;19.796;2023-08-06T21:59:13;2.40;;;1.30;;
52934;SDS011;38802;50.198;19.796;2023-08-06T22:01:41;1.30;;;1.20;;
52934;SDS011;38802;50.198;19.796;2023-08-06T22:04:09;1.20;;;1.10;;
52934;SDS011;38802;50.198;19.796;2023-08-06T22:06:37;1.80;;;1.30;;
52934;SDS011;38802;50.198;19.796;2023-08-06T22:09:05;1.90;;;1.10;;
52934;SDS011;38802;50.198;19.796;2023-08-06T22:11:33;4.50;;;1.00;;
52934;SDS011;38802;50.198;19.796;2023-08-06T22:14:01;1.50;;;1.40;;
52934;SDS011;38802;50.198;19.796;2023-08-06T22:16:30;1.20;;;1.10;;
52934;SDS011;38802;50.198;19.796;2023-08-06T22:29:15;5.70;;;1.50;;
52934;SDS011;38802;50.198;19.796;2023-08-06T22:31:43;2.10;;;1.90;;
52934;SDS011;38802;50.198;19.796;2023-08-06T22:34:11;1.60;;;1.50;;
52934;SDS011;38802;50.198;19.796;2023-08-06T22:36:40;3.90;;;1.30;;
52934;SDS011;38802;50.198;19.796;2023-08-06T22:39:10;1.70;;;1.40;;
52934;SDS011;38802;50.198;19.796;2023-08-06T22:41:38;1.90;;;1.20;;
52934;SDS011;38802;50.198;19.796;2023-08-06T22:44:06;5.20;;;1.30;;
52934;SDS011;38802;50.198;19.796;2023-08-06T22:46:34;2.10;;;1.50;;